О сайте

Добрый день Уважаемые посетители сайта!
Этот ресурс создан с целью предоставить любителям малой авиации максимум полезной информации и возможностей по обмену различными сведениями об аэродромах и интересных маршрутах. Для этого на сайте есть странички Аэродромы - информация из баз АОПА (в том виде как она предоставляется к свободному использованию) и Каталог аэродромов и аэроклубов , с различными вариантами поиска и сортировки, возможностью найти трансфер, арендовать авто или забронировать номер в гостинице on-line, а так же возможностями :
- для аэроклубов - добавить какую либо дополнительную информацию в страничку , посвященную аэроклубу
(чтобы добавить информацию необходимо зарегистрироваться, и подтвердить свою принадлежность к какому либо аэроклубу)
- для посетителей - поделиться каким либо интересным маршрутом, нарисовать его на карте, описать достопримечательности, загрузить фотографии и поставить в соответствие с каким либо клубом или аэродромом.
(чтобы добавить информацию необходимо зарегистрироваться)

Аэроклубы / Аэродромы в Москве

Карта аэродромов в Москве по коду ИКАО

Список аэродромов Москвы

Javascript is required to view this map.

Авиационная погода в Москва - Домодедово

Регион: 
Погода METAR: 
UUDD 201530Z 26002MPS 220V310 9999 SCT023 07/03 Q1012 R88/70D NOSIG
Время наблюдения: 
2019-09-20T15:30:00Z
Температура C: 
7.0
Точка росы: 
3.0
Направление ветра: 
260
Скорость ветра: 
4
Метеорологическая видимость: 
6.21
Условия полета: 
VFR
Аэропорт подробнее: 

Авиационная погода в Москва - Шереметьево

Регион: 
Погода METAR: 
UUEE 201530Z 32003MPS 270V340 9999 -SHRA BKN021CB 07/04 Q1013 R88/250051 NOSIG
Время наблюдения: 
2019-09-20T15:30:00Z
Температура C: 
7.0
Точка росы: 
4.0
Направление ветра: 
320
Скорость ветра: 
6
Метеорологическая видимость: 
6.21
Явления погоды: 
-SHRA
Условия полета: 
MVFR
Аэропорт подробнее: 

Авиационная погода в Москва - Внуково

Регион: 
Погода METAR: 
UUWW 201530Z 30003MPS 9999 BKN046 07/02 Q1012 R24/000070 NOSIG
Время наблюдения: 
2019-09-20T15:30:00Z
Температура C: 
7.0
Точка росы: 
2.0
Направление ветра: 
300
Скорость ветра: 
6
Метеорологическая видимость: 
6.21
Условия полета: 
VFR
Аэропорт подробнее: 

Аэроклубы и аэродромы по регионам Юга России


Найти трансфер

С помощью этой формы Вы можете найти трансфер из аэропорта в город, аэропорт или вокзал: